Time;durP1;ratioP1;P1;durP2;ratioP2;P2;SDS_P1;SDS_P2;PMS_P1;PMS_P2;Temp;Humidity;BMP_temperature;BMP_pressure;BME280_temperature;BME280_humidity;BME280_pressure;Samples;Min_cycle;Max_cycle;Signal;HPM_P1;HPM_P2
2022/01/16 00:05:07;;;;;;;120.93;52.75;;;;;;;-2.59;100.00;98409.66;4998616;28;20042;-85
2022/01/16 00:07:51;;;;;;;149.98;66.45;;;;;;;-2.52;100.00;98403.59;4974546;28;20030;-85
2022/01/16 00:10:18;;;;;;;133.52;57.33;;;;;;;-2.50;100.00;98404.47;4970068;28;20410;-85
2022/01/16 00:12:48;;;;;;;158.05;69.80;;;;;;;-2.53;100.00;98399.22;4984529;28;20565;-85
2022/01/16 00:15:18;;;;;;;177.18;75.32;;;;;;;-2.53;100.00;98404.44;4970158;28;20030;-84
2022/01/16 00:18:29;;;;;;;156.43;66.30;;;;;;;-2.56;100.00;98422.78;4992135;28;20506;-84
2022/01/16 00:20:33;;;;;;;163.52;75.18;;;;;;;-2.62;100.00;98435.84;4990242;28;20038;-85
2022/01/16 00:22:59;;;;;;;170.10;75.47;;;;;;;-2.48;100.00;98448.09;4998171;28;20118;-85
2022/01/16 00:25:25;;;;;;;181.23;79.38;;;;;;;-2.54;100.00;98455.06;4969673;28;20022;-85
2022/01/16 00:27:51;;;;;;;178.70;78.25;;;;;;;-2.45;100.00;98484.78;4983872;28;20027;-85
2022/01/16 00:30:18;;;;;;;173.82;75.75;;;;;;;-2.49;100.00;98479.56;5000167;28;20026;-85
2022/01/16 00:32:44;;;;;;;167.68;72.00;;;;;;;-2.53;100.00;98514.44;4960738;28;20398;-85
2022/01/16 00:35:11;;;;;;;167.90;72.78;;;;;;;-2.64;100.00;98534.44;4966175;28;20486;-84
2022/01/16 00:37:38;;;;;;;164.02;71.00;;;;;;;-2.62;100.00;98456.78;4967841;28;20096;-85
2022/01/16 00:40:05;;;;;;;141.90;63.17;;;;;;;-2.70;100.00;98407.00;4995824;28;20019;-85
2022/01/16 00:42:31;;;;;;;139.15;59.00;;;;;;;-2.80;100.00;98462.81;5000124;28;20039;-87
2022/01/16 00:44:56;;;;;;;118.85;54.88;;;;;;;-2.83;100.00;98423.53;4982894;28;20509;-86
2022/01/16 00:47:22;;;;;;;118.47;53.00;;;;;;;-2.95;100.00;98319.66;5000205;28;20116;-85
2022/01/16 00:49:48;;;;;;;105.45;46.55;;;;;;;-3.01;100.00;98366.75;4960215;28;20027;-85
2022/01/16 00:52:13;;;;;;;93.55;40.90;;;;;;;-3.30;100.00;98355.28;4966083;28;20031;-85
2022/01/16 00:54:39;;;;;;;96.18;43.78;;;;;;;-3.46;100.00;98270.66;4967946;28;20049;-86
2022/01/16 00:57:06;;;;;;;95.07;43.10;;;;;;;-3.44;100.00;98330.78;4996518;28;20037;-86
2022/01/16 00:59:31;;;;;;;94.88;42.13;;;;;;;-3.51;100.00;98313.34;4988332;28;20030;-85
2022/01/16 01:01:57;;;;;;;95.32;42.03;;;;;;;-3.55;100.00;98290.66;4985741;28;20034;-85
2022/01/16 01:04:23;;;;;;;99.13;42.75;;;;;;;-3.46;100.00;98361.28;5002037;28;20038;-85
2022/01/16 01:06:50;;;;;;;98.55;42.00;;;;;;;-3.39;100.00;98395.34;4998251;28;20030;-85
2022/01/16 01:09:16;;;;;;;98.63;44.78;;;;;;;-3.34;100.00;98395.34;4985894;28;20469;-85
2022/01/16 01:11:45;;;;;;;102.47;44.67;;;;;;;-3.39;100.00;98373.53;5004622;28;20034;-86
2022/01/16 01:19:35;;;;;;;103.45;43.25;;;;;;;-3.15;100.00;98397.22;4980117;28;20526;-86
2022/01/16 01:22:02;;;;;;;105.22;46.20;;;;;;;-3.31;100.00;98390.13;4984648;28;20414;-85
2022/01/16 01:24:30;;;;;;;99.63;44.45;;;;;;;-3.35;100.00;98393.59;4970957;28;20463;-85
2022/01/16 01:29:29;;;;;;;91.82;40.53;;;;;;;-3.30;100.00;98392.78;4982789;28;20026;-85
2022/01/16 01:31:56;;;;;;;92.25;41.33;;;;;;;-3.37;100.00;98390.09;4978747;28;20109;-85
2022/01/16 01:34:22;;;;;;;90.18;41.55;;;;;;;-3.43;100.00;98395.28;4996957;28;20109;-84
2022/01/16 01:36:49;;;;;;;80.45;37.97;;;;;;;-3.41;100.00;98402.28;4959658;28;20046;-85
2022/01/16 01:39:22;;;;;;;88.60;39.92;;;;;;;-3.39;100.00;98433.69;4964249;28;20026;-85
2022/01/16 01:41:50;;;;;;;92.95;40.47;;;;;;;-3.46;100.00;98426.66;4982999;28;20041;-85
2022/01/16 01:52:29;;;;;;;94.97;40.83;;;;;;;-3.65;100.00;98438.69;4981026;28;20029;-86
2022/01/16 01:54:55;;;;;;;101.93;40.35;;;;;;;-3.64;100.00;98443.06;4987069;28;20034;-85
2022/01/16 01:57:21;;;;;;;100.68;40.17;;;;;;;-3.52;100.00;98434.44;4992749;28;20035;-85
2022/01/16 01:59:46;;;;;;;80.90;34.22;;;;;;;-3.56;100.00;98437.88;4982211;28;20026;-85
2022/01/16 02:02:12;;;;;;;67.45;28.83;;;;;;;-3.52;100.00;98442.28;4979430;28;20038;-86
2022/01/16 02:04:38;;;;;;;63.70;27.83;;;;;;;-3.60;100.00;98429.16;5001757;28;20034;-86
2022/01/16 02:07:03;;;;;;;92.57;36.42;;;;;;;-3.52;100.00;98450.13;4966546;28;20031;-86
2022/01/16 02:09:31;;;;;;;94.90;37.92;;;;;;;-3.62;100.00;98441.34;4980797;28;20034;-86
2022/01/16 02:11:59;;;;;;;69.93;31.15;;;;;;;-3.68;100.00;98429.94;4995628;28;20027;-86
2022/01/16 02:14:30;;;;;;;80.57;31.92;;;;;;;-3.68;100.00;98435.19;5000005;28;20042;-85
2022/01/16 02:28:23;;;;;;;65.95;29.67;;;;;;;-3.72;100.00;98441.25;4980710;28;20102;-85
2022/01/16 02:36:32;;;;;;;64.57;29.08;;;;;;;-3.69;100.00;98436.06;4971839;28;20062;-86
2022/01/16 02:39:08;;;;;;;69.05;29.58;;;;;;;-3.70;100.00;98426.47;4992557;28;20089;-85
2022/01/16 02:41:59;;;;;;;81.05;36.22;;;;;;;-3.70;100.00;98422.13;4971730;28;20022;-85
2022/01/16 02:46:58;;;;;;;68.40;31.15;;;;;;;-3.87;100.00;98419.34;5007304;28;20026;-86
2022/01/16 02:49:30;;;;;;;72.15;31.40;;;;;;;-3.94;100.00;98393.19;4999569;28;20046;-86
2022/01/16 02:52:06;;;;;;;66.83;28.80;;;;;;;-3.84;100.00;98419.38;4972444;28;20042;-86
2022/01/16 02:54:36;;;;;;;58.13;28.27;;;;;;;-4.00;100.00;98401.81;4969605;28;20379;-85
2022/01/16 02:57:03;;;;;;;63.50;27.77;;;;;;;-4.02;100.00;98408.78;4993827;28;20030;-85
2022/01/16 02:59:29;;;;;;;61.67;27.05;;;;;;;-4.00;100.00;98414.88;4982676;28;20030;-86
2022/01/16 03:01:54;;;;;;;65.63;28.98;;;;;;;-3.91;100.00;98407.13;4989198;28;20441;-84
2022/01/16 03:04:20;;;;;;;65.78;28.30;;;;;;;-4.00;100.00;98396.59;4967425;28;20421;-85
2022/01/16 03:06:46;;;;;;;54.10;25.80;;;;;;;-3.99;100.00;98416.63;4987612;28;20093;-84
2022/01/16 03:09:13;;;;;;;58.10;25.40;;;;;;;-4.08;100.00;98413.94;4968070;28;20037;-84
2022/01/16 03:11:45;;;;;;;55.58;25.00;;;;;;;-4.11;100.00;98411.31;4998444;28;20026;-85
2022/01/16 03:14:13;;;;;;;53.92;24.90;;;;;;;-4.05;100.00;98416.56;4967863;28;20223;-85
2022/01/16 03:16:43;;;;;;;53.55;24.98;;;;;;;-4.01;100.00;98402.69;4989859;28;20085;-85
2022/01/16 03:22:03;;;;;;;62.42;26.38;;;;;;;-4.00;100.00;98412.25;4995969;28;20101;-86
2022/01/16 03:24:31;;;;;;;62.00;27.88;;;;;;;-4.06;100.00;98413.97;5006479;28;20607;-87
2022/01/16 03:26:59;;;;;;;54.80;24.85;;;;;;;-4.01;100.00;98426.19;5006718;28;20026;-82
2022/01/16 03:29:26;;;;;;;66.35;28.98;;;;;;;-4.04;100.00;98410.50;4974407;28;20494;-83
2022/01/16 03:31:52;;;;;;;65.20;29.45;;;;;;;-4.04;100.00;98430.53;4995379;28;20129;-81
2022/01/16 03:34:18;;;;;;;63.13;26.63;;;;;;;-4.13;100.00;98422.59;4973090;28;20029;-82
2022/01/16 03:36:44;;;;;;;56.47;25.58;;;;;;;-4.18;100.00;98417.31;4970788;28;20031;-82
2022/01/16 03:39:09;;;;;;;63.95;26.55;;;;;;;-4.17;100.00;98415.59;4998602;28;20061;-83
2022/01/16 03:41:36;;;;;;;83.05;35.90;;;;;;;-4.26;100.00;98420.72;5000824;28;20030;-81
2022/01/16 03:44:03;;;;;;;73.30;32.88;;;;;;;-4.30;100.00;98429.38;4999413;28;20030;-81
2022/01/16 03:46:34;;;;;;;70.63;30.48;;;;;;;-4.27;100.00;98432.88;4972574;28;20474;-81
2022/01/16 03:49:11;;;;;;;64.82;30.20;;;;;;;-4.32;100.00;98434.59;5002952;28;20046;-81
2022/01/16 03:51:38;;;;;;;71.03;29.90;;;;;;;-4.27;100.00;98445.94;4997521;28;20041;-81
2022/01/16 03:54:05;;;;;;;65.72;29.45;;;;;;;-4.41;100.00;98424.94;5000326;28;20117;-81
2022/01/16 03:56:31;;;;;;;62.75;27.23;;;;;;;-4.36;100.00;98440.63;4982897;28;20494;-81
2022/01/16 03:58:57;;;;;;;71.88;28.35;;;;;;;-4.48;100.00;98438.78;5000482;28;20033;-80
2022/01/16 04:01:24;;;;;;;71.05;28.27;;;;;;;-4.43;100.00;98447.50;4989216;28;20088;-81
2022/01/16 04:03:53;;;;;;;78.30;31.63;;;;;;;-4.33;100.00;98452.84;4990662;28;21666;-81
2022/01/16 04:06:20;;;;;;;81.03;32.42;;;;;;;-4.34;100.00;98454.59;4983875;28;20035;-81
2022/01/16 04:08:50;;;;;;;116.35;42.17;;;;;;;-4.29;100.00;98452.91;4991672;28;20113;-80
2022/01/16 04:11:17;;;;;;;119.50;44.00;;;;;;;-4.30;100.00;98450.25;4975615;28;20049;-80
2022/01/16 04:14:05;;;;;;;114.13;43.25;;;;;;;-4.22;100.00;98462.56;4990095;28;20031;-80
2022/01/16 04:16:31;;;;;;;99.65;41.38;;;;;;;-4.27;100.00;98451.16;4977407;28;20030;-81
2022/01/16 04:18:57;;;;;;;118.13;42.47;;;;;;;-4.38;100.00;98450.19;4980319;28;20023;-80
2022/01/16 04:21:25;;;;;;;119.95;42.22;;;;;;;-4.32;100.00;98468.53;4988004;28;20104;-81
2022/01/16 04:23:52;;;;;;;104.70;39.33;;;;;;;-4.28;100.00;98477.28;4983292;28;20030;-81
2022/01/16 04:26:18;;;;;;;114.28;44.67;;;;;;;-4.24;100.00;98485.16;4967332;28;20465;-81
2022/01/16 04:28:46;;;;;;;126.45;47.90;;;;;;;-4.18;100.00;98482.59;4987585;28;20042;-81
2022/01/16 04:31:13;;;;;;;96.40;39.05;;;;;;;-4.28;100.00;98472.06;4969345;28;20018;-81
2022/01/16 04:33:38;;;;;;;80.75;33.08;;;;;;;-4.49;100.00;98481.38;4974498;28;20076;-80
2022/01/16 04:36:05;;;;;;;124.28;49.35;;;;;;;-4.50;100.00;98484.88;4991630;28;20069;-82
2022/01/16 04:38:33;;;;;;;149.85;59.47;;;;;;;-4.50;100.00;98465.72;4991705;28;20096;-82
2022/01/16 04:43:48;;;;;;;88.15;37.10;;;;;;;-4.54;100.00;98474.34;4975584;28;20478;-82
2022/01/16 04:46:19;;;;;;;83.13;33.25;;;;;;;-4.53;100.00;98469.16;5003530;28;20031;-82
2022/01/16 04:48:45;;;;;;;82.18;35.00;;;;;;;-4.51;100.00;98483.09;4965215;28;20137;-81
2022/01/16 04:51:11;;;;;;;91.38;35.97;;;;;;;-4.56;100.00;98474.34;4968663;28;20109;-82
2022/01/16 04:53:38;;;;;;;87.05;34.30;;;;;;;-4.68;100.00;98465.50;4998605;28;20085;-81
2022/01/16 04:56:04;;;;;;;78.65;32.13;;;;;;;-4.74;100.00;98461.09;4991626;28;20026;-84
2022/01/16 04:58:30;;;;;;;78.00;32.47;;;;;;;-4.71;100.00;98460.25;4986221;28;20121;-85
2022/01/16 05:00:56;;;;;;;93.00;37.60;;;;;;;-4.73;100.00;98456.72;4981692;28;20454;-85
2022/01/16 05:03:23;;;;;;;78.03;33.08;;;;;;;-4.86;100.00;98465.28;4984875;28;20053;-85
2022/01/16 05:05:49;;;;;;;98.63;38.97;;;;;;;-4.88;100.00;98464.34;4975102;28;20093;-86
2022/01/16 05:08:14;;;;;;;90.63;36.90;;;;;;;-4.92;100.00;98466.91;4975764;28;20022;-85
2022/01/16 05:10:40;;;;;;;100.53;41.42;;;;;;;-4.86;100.00;98475.69;4968624;28;20031;-86
2022/01/16 05:18:35;;;;;;;115.30;44.97;;;;;;;-4.84;100.00;98469.66;4986675;28;20469;-86
2022/01/16 05:21:01;;;;;;;121.97;51.35;;;;;;;-4.88;100.00;98461.75;4991341;28;20029;-86
2022/01/16 05:23:27;;;;;;;114.68;47.00;;;;;;;-4.92;100.00;98466.91;5007962;28;20427;-85
2022/01/16 05:25:52;;;;;;;124.97;52.97;;;;;;;-4.80;100.00;98473.16;5003562;28;20022;-86
2022/01/16 05:28:18;;;;;;;130.57;54.25;;;;;;;-4.92;100.00;98466.03;4999304;28;20030;-85
2022/01/16 05:30:44;;;;;;;134.32;52.80;;;;;;;-4.89;100.00;98467.84;4978664;28;20121;-85
2022/01/16 05:33:09;;;;;;;135.93;52.92;;;;;;;-4.87;100.00;98473.94;4986731;28;20034;-85
2022/01/16 05:35:35;;;;;;;135.82;53.75;;;;;;;-4.88;100.00;98473.06;4999966;28;20113;-85
2022/01/16 05:38:01;;;;;;;124.88;50.85;;;;;;;-4.83;100.00;98466.19;4984258;28;20034;-86
2022/01/16 05:40:26;;;;;;;141.73;56.53;;;;;;;-4.95;100.00;98456.44;4974753;28;20037;-86
2022/01/16 05:42:52;;;;;;;132.30;54.60;;;;;;;-4.95;100.00;98460.78;5000376;28;20108;-75
2022/01/16 05:45:18;;;;;;;129.73;52.35;;;;;;;-4.98;100.00;98464.22;4988014;28;20731;-76
2022/01/16 05:47:43;;;;;;;119.72;49.88;;;;;;;-5.02;100.00;98454.63;4995033;28;20054;-76
2022/01/16 05:50:09;;;;;;;142.75;53.15;;;;;;;-4.92;100.00;98468.66;4996276;28;20030;-76
2022/01/16 05:52:34;;;;;;;143.45;57.45;;;;;;;-4.89;100.00;98462.63;5011384;28;20042;-75
2022/01/16 05:55:00;;;;;;;222.20;96.00;;;;;;;-4.77;100.00;98476.69;4988365;28;20030;-76
2022/01/16 05:57:26;;;;;;;151.52;63.55;;;;;;;-4.81;100.00;98468.81;4998769;28;20102;-76
2022/01/16 05:59:51;;;;;;;155.20;64.80;;;;;;;-4.79;100.00;98483.59;4996608;28;20022;-76
2022/01/16 06:02:17;;;;;;;140.25;54.88;;;;;;;-4.95;100.00;98479.03;4993148;28;20023;-77
2022/01/16 06:04:42;;;;;;;141.93;58.60;;;;;;;-4.88;100.00;98482.59;5009266;28;20031;-77
2022/01/16 06:07:12;;;;;;;108.93;44.20;;;;;;;-4.84;100.00;98469.66;5001738;28;20031;-77
2022/01/16 06:09:37;;;;;;;104.70;42.45;;;;;;;-4.77;100.00;98487.13;5008250;28;20089;-77
2022/01/16 06:12:04;;;;;;;113.50;47.55;;;;;;;-4.69;100.00;98489.81;5013675;28;20450;-77
2022/01/16 06:14:31;;;;;;;91.25;41.42;;;;;;;-4.74;100.00;98483.69;4989488;28;20033;-76
2022/01/16 06:16:56;;;;;;;102.47;42.60;;;;;;;-4.79;100.00;98483.59;5013831;28;20026;-77
2022/01/16 06:19:22;;;;;;;98.85;41.80;;;;;;;-4.72;100.00;98500.22;5016376;28;20030;-76
2022/01/16 06:21:48;;;;;;;85.95;37.30;;;;;;;-4.76;100.00;98494.09;5011216;28;20052;-76
2022/01/16 06:24:14;;;;;;;78.20;35.72;;;;;;;-4.74;100.00;98491.50;5001473;28;20060;-77
2022/01/16 06:26:39;;;;;;;92.18;38.55;;;;;;;-4.63;100.00;98498.63;4999452;28;20120;-77
2022/01/16 06:29:05;;;;;;;72.10;31.05;;;;;;;-4.64;100.00;98503.78;5001267;28;20097;-77
2022/01/16 06:31:31;;;;;;;55.17;26.52;;;;;;;-4.66;100.00;98500.31;5004157;28;20466;-75
2022/01/16 06:34:00;;;;;;;68.78;33.83;;;;;;;-4.70;100.00;98502.00;5007415;28;20038;-76
2022/01/16 06:36:26;;;;;;;79.00;38.95;;;;;;;-4.66;100.00;98495.97;5003859;28;20174;-76
2022/01/16 06:38:53;;;;;;;90.75;36.10;;;;;;;-4.46;100.00;98509.28;5005089;28;20057;-77
2022/01/16 06:41:19;;;;;;;81.38;36.30;;;;;;;-4.33;100.00;98505.06;5005031;28;20029;-77
2022/01/16 06:43:44;;;;;;;142.73;56.25;;;;;;;-4.18;100.00;98511.31;5004277;28;20066;-77
2022/01/16 06:46:10;;;;;;;150.20;51.08;;;;;;;-3.54;100.00;98496.31;4983727;28;20026;-76
2022/01/16 06:48:36;;;;;;;98.43;41.75;;;;;;;-1.60;100.00;98524.38;5002746;28;20046;-92
2022/01/16 06:51:02;;;;;;;65.55;31.45;;;;;;;0.40;100.00;98522.09;4991294;28;20042;-93
2022/01/16 06:53:28;;;;;;;68.65;30.23;;;;;;;1.81;92.96;98506.78;4990679;28;20461;-92
2022/01/16 06:55:54;;;;;;;54.83;26.17;;;;;;;2.34;79.28;98517.50;5009104;28;20027;-91
2022/01/16 06:58:20;;;;;;;56.80;27.23;;;;;;;3.60;70.65;98497.78;5001115;28;20037;-92
2022/01/16 07:00:47;;;;;;;72.32;33.78;;;;;;;4.89;64.38;98482.59;5015736;28;20034;-91
2022/01/16 07:03:14;;;;;;;72.75;34.67;;;;;;;5.89;59.95;98505.63;4967259;28;20066;-93
2022/01/16 07:05:42;;;;;;;72.18;37.00;;;;;;;6.34;56.63;98483.03;4993319;28;20030;-93
2022/01/16 07:08:07;;;;;;;70.53;37.30;;;;;;;6.54;52.83;98485.09;4978613;28;20039;-93
2022/01/16 07:10:33;;;;;;;91.13;46.47;;;;;;;7.11;51.47;98486.84;5005616;28;20087;-92
2022/01/16 07:12:58;;;;;;;102.78;51.92;;;;;;;7.74;49.55;98494.41;4983795;28;20113;-91
2022/01/16 07:15:24;;;;;;;149.07;74.38;;;;;;;7.23;48.79;98486.44;4975210;28;20062;-91
2022/01/16 07:17:50;;;;;;;154.57;78.30;;;;;;;7.60;48.58;98493.06;5001417;28;20466;-92
2022/01/16 07:20:18;;;;;;;156.80;76.25;;;;;;;8.66;46.85;98493.59;4982019;28;20200;-91
2022/01/16 07:22:53;;;;;;;154.20;82.10;;;;;;;8.42;45.27;98479.44;4984403;28;20054;-91
2022/01/16 07:25:18;;;;;;;157.45;82.57;;;;;;;7.24;48.90;98498.78;4997736;28;20023;-91
2022/01/16 07:27:44;;;;;;;134.63;66.30;;;;;;;7.49;48.29;98503.25;4994592;28;20034;-91
2022/01/16 07:30:09;;;;;;;140.50;73.22;;;;;;;7.55;49.08;98499.50;5006349;28;20415;-94
2022/01/16 07:32:36;;;;;;;147.80;74.68;;;;;;;8.58;46.64;98479.72;4987622;28;20573;-91
2022/01/16 07:35:03;;;;;;;164.93;83.10;;;;;;;9.68;44.95;98498.25;4990485;28;20057;-78
2022/01/16 07:37:29;;;;;;;208.25;103.05;;;;;;;9.50;44.46;98485.69;4988411;28;20462;-78
2022/01/16 07:39:55;;;;;;;244.55;123.57;;;;;;;9.79;43.85;98488.84;4998438;28;20022;-87
2022/01/16 07:42:20;;;;;;;277.52;146.85;;;;;;;9.92;43.79;98490.97;4999489;28;20027;-87
2022/01/16 07:44:46;;;;;;;273.52;146.10;;;;;;;10.10;43.54;98485.69;4964794;28;20026;-78
2022/01/16 07:47:11;;;;;;;239.93;129.10;;;;;;;9.86;44.25;98501.94;4979477;28;20498;-80
2022/01/16 07:49:37;;;;;;;270.50;148.77;;;;;;;9.23;44.05;98493.03;5018987;28;20037;-93
2022/01/16 07:52:03;;;;;;;240.20;126.07;;;;;;;9.55;45.11;98513.06;4981243;28;20076;-95
2022/01/16 07:54:29;;;;;;;233.07;124.88;;;;;;;8.78;45.42;98490.44;4978789;28;20118;-92
2022/01/16 07:56:54;;;;;;;219.18;118.18;;;;;;;9.84;44.11;98503.81;5004766;28;20072;-90
2022/01/16 07:59:20;;;;;;;214.00;117.88;;;;;;;9.99;42.94;98504.00;4992072;28;20520;-90
2022/01/16 08:01:45;;;;;;;215.40;113.93;;;;;;;9.57;44.49;98511.19;5003778;28;20023;-92
2022/01/16 08:04:11;;;;;;;206.80;113.18;;;;;;;10.35;43.28;98512.22;4991474;28;20113;-91
2022/01/16 08:06:37;;;;;;;202.48;111.97;;;;;;;9.23;44.85;98517.94;4994507;28;20026;-92
2022/01/16 08:09:03;;;;;;;212.00;109.90;;;;;;;8.70;45.26;98512.06;4998654;28;20110;-93
2022/01/16 08:11:28;;;;;;;226.95;122.82;;;;;;;7.42;48.67;98520.34;4990701;28;20094;-92
2022/01/16 08:13:54;;;;;;;200.65;106.03;;;;;;;6.88;51.07;98512.38;4996871;28;20018;-93
2022/01/16 08:16:19;;;;;;;184.93;97.57;;;;;;;6.58;52.19;98518.66;5002103;28;20029;-90
2022/01/16 08:18:45;;;;;;;206.70;102.63;;;;;;;5.90;53.40;98534.81;4993939;28;20026;-92
2022/01/16 08:21:10;;;;;;;186.93;95.45;;;;;;;5.54;55.27;98538.41;5003532;28;20045;-88
2022/01/16 08:23:36;;;;;;;171.02;84.60;;;;;;;6.82;52.81;98538.28;4998880;28;20039;-85
2022/01/16 08:26:04;;;;;;;152.93;79.22;;;;;;;8.10;49.41;98517.03;4997342;28;20037;-85
2022/01/16 08:28:29;;;;;;;166.73;81.35;;;;;;;7.73;49.52;98525.47;5001861;28;20762;-87
2022/01/16 08:30:55;;;;;;;165.68;85.78;;;;;;;7.02;50.12;98506.59;4958232;28;20030;-87
2022/01/16 08:33:21;;;;;;;184.45;96.93;;;;;;;7.08;50.76;98504.63;4970175;28;20455;-85
2022/01/16 08:35:46;;;;;;;181.80;96.25;;;;;;;7.45;49.63;98506.91;4984542;28;20029;-80
2022/01/16 08:38:12;;;;;;;186.85;99.60;;;;;;;8.83;48.76;98496.47;5004102;28;20031;-79
2022/01/16 08:40:37;;;;;;;152.90;83.18;;;;;;;9.07;46.65;98479.50;4984060;28;20031;-83
2022/01/16 08:43:08;;;;;;;155.27;83.53;;;;;;;9.68;46.09;98482.25;4974402;28;20041;-84
2022/01/16 08:45:38;;;;;;;119.28;63.40;;;;;;;9.42;46.78;98478.00;4974604;28;20041;-84
2022/01/16 08:48:05;;;;;;;106.63;56.63;;;;;;;9.69;45.03;98473.31;4980424;28;20050;-85
2022/01/16 08:50:32;;;;;;;114.65;56.45;;;;;;;10.48;44.92;98478.63;4992295;28;20104;-89
2022/01/16 08:52:59;;;;;;;73.72;40.42;;;;;;;9.30;45.90;98485.66;4966010;28;20046;-89
2022/01/16 08:55:25;;;;;;;81.28;41.25;;;;;;;9.30;45.71;98458.97;4971843;28;20030;-86
2022/01/16 08:57:51;;;;;;;76.00;42.65;;;;;;;8.84;47.37;98474.19;5001544;28;20053;-90
2022/01/16 09:00:16;;;;;;;100.13;52.88;;;;;;;9.90;44.99;98477.69;5001609;28;20023;-82
2022/01/16 09:02:42;;;;;;;93.20;49.05;;;;;;;10.36;45.11;98475.63;4990460;28;20034;-83
2022/01/16 09:05:09;;;;;;;70.55;39.67;;;;;;;10.97;44.38;98465.56;4988386;28;20026;-84
2022/01/16 09:07:35;;;;;;;92.15;50.22;;;;;;;10.80;44.98;98461.00;4967856;28;20088;-83
2022/01/16 09:10:01;;;;;;;90.38;49.92;;;;;;;10.83;45.25;98452.84;4996815;28;20510;-91
2022/01/16 09:12:29;;;;;;;93.85;50.75;;;;;;;11.01;43.74;98454.66;5014451;28;20031;-82
2022/01/16 09:14:55;;;;;;;94.63;50.42;;;;;;;10.76;45.61;98467.47;4972086;28;20023;-82
2022/01/16 09:17:22;;;;;;;92.75;52.85;;;;;;;10.07;45.96;98458.22;4972697;28;20035;-81
2022/01/16 09:19:47;;;;;;;100.47;54.63;;;;;;;10.46;45.60;98460.91;4976897;28;20511;-82
2022/01/16 09:22:13;;;;;;;101.57;55.97;;;;;;;11.40;43.00;98452.66;4994224;28;20022;-83
2022/01/16 09:24:38;;;;;;;97.00;51.13;;;;;;;10.53;44.14;98439.13;4996921;28;20030;-77
2022/01/16 09:27:04;;;;;;;87.10;45.35;;;;;;;9.22;46.00;98451.28;4983387;28;20494;-78
2022/01/16 09:29:30;;;;;;;76.75;42.13;;;;;;;8.49;48.60;98435.59;4985499;28;20458;-80
2022/01/16 09:31:55;;;;;;;73.15;39.03;;;;;;;9.17;47.09;98455.94;4974926;28;20026;-81
2022/01/16 09:34:21;;;;;;;87.35;45.60;;;;;;;9.08;47.84;98443.84;4976038;28;20026;-90
2022/01/16 09:36:47;;;;;;;107.22;56.67;;;;;;;9.89;46.46;98438.53;4979517;28;20506;-87
2022/01/16 09:39:12;;;;;;;92.32;49.05;;;;;;;9.81;46.63;98449.56;5006948;28;20053;-80
2022/01/16 09:41:40;;;;;;;89.80;45.75;;;;;;;11.74;42.67;98424.16;4982248;28;20045;-81
2022/01/16 09:44:05;;;;;;;89.63;46.67;;;;;;;11.21;43.58;98409.00;4999488;28;20529;-84
2022/01/16 09:46:31;;;;;;;79.63;44.38;;;;;;;12.24;41.53;98405.34;4973386;28;20054;-83
2022/01/16 09:48:57;;;;;;;68.75;36.20;;;;;;;13.24;38.39;98386.16;4977699;28;20069;-82
2022/01/16 09:51:23;;;;;;;67.47;36.80;;;;;;;13.15;39.08;98375.97;4981664;28;20153;-82
2022/01/16 09:53:48;;;;;;;34.38;19.58;;;;;;;13.76;36.01;98340.88;4991649;28;20527;-83
2022/01/16 09:56:14;;;;;;;50.40;26.40;;;;;;;13.71;37.52;98351.06;5001965;28;20054;-83
2022/01/16 09:58:41;;;;;;;27.65;16.92;;;;;;;13.70;36.82;98341.25;4967075;28;20062;-82
2022/01/16 10:01:07;;;;;;;26.90;16.38;;;;;;;13.26;36.83;98342.13;4999066;28;20090;-83
2022/01/16 10:03:44;;;;;;;32.97;19.00;;;;;;;12.39;38.50;98354.38;4966139;28;20030;-82
2022/01/16 10:06:24;;;;;;;29.25;18.00;;;;;;;12.64;38.18;98339.56;4985801;28;20407;-81
2022/01/16 10:08:53;;;;;;;58.95;30.58;;;;;;;14.73;35.94;98332.81;5003431;28;20029;-79
2022/01/16 10:11:29;;;;;;;58.42;33.08;;;;;;;14.71;36.09;98329.34;4979005;28;20527;-83
2022/01/16 10:14:00;;;;;;;35.22;19.73;;;;;;;14.47;34.70;98323.75;4994570;28;20482;-83
2022/01/16 10:16:27;;;;;;;61.80;35.78;;;;;;;14.36;35.82;98318.22;4963105;28;20418;-81
2022/01/16 10:18:53;;;;;;;52.40;28.88;;;;;;;14.09;36.21;98322.59;4975754;28;20022;-83
2022/01/16 10:21:39;;;;;;;60.92;33.33;;;;;;;13.21;37.77;98340.69;4990518;28;20398;-79
2022/01/16 10:24:28;;;;;;;55.08;30.75;;;;;;;12.94;38.55;98340.47;4988864;28;20057;-77
2022/01/16 10:27:09;;;;;;;59.88;31.08;;;;;;;13.85;37.25;98334.91;4985467;28;20482;-81
2022/01/16 10:29:38;;;;;;;50.17;26.90;;;;;;;13.41;37.88;98338.50;5008383;28;20041;-82
2022/01/16 10:32:33;;;;;;;53.45;29.50;;;;;;;13.60;38.04;98332.03;4969140;28;20116;-80
2022/01/16 10:35:21;;;;;;;48.28;26.95;;;;;;;12.64;37.79;98318.97;4974005;28;20798;-80
2022/01/16 10:37:52;;;;;;;48.25;25.25;;;;;;;12.44;39.24;98328.16;4998042;28;20027;-79
2022/01/16 10:40:37;;;;;;;49.77;27.13;;;;;;;13.70;37.29;98308.97;4980740;28;20026;-78
2022/01/16 10:43:13;;;;;;;53.72;27.17;;;;;;;13.01;37.42;98304.25;4989856;28;20558;-79
2022/01/16 10:45:40;;;;;;;55.90;30.35;;;;;;;13.18;38.30;98312.19;4971861;28;20038;-79
2022/01/16 10:48:06;;;;;;;57.03;27.92;;;;;;;12.82;37.68;98298.22;4964808;28;20102;-79
2022/01/16 10:50:45;;;;;;;48.80;25.33;;;;;;;13.52;37.15;98293.06;4997904;28;20038;-80
2022/01/16 10:53:16;;;;;;;55.95;30.25;;;;;;;12.83;38.26;98299.94;4977348;28;20117;-79
2022/01/16 10:55:53;;;;;;;30.77;16.77;;;;;;;13.06;37.07;98296.78;4970642;28;20042;-80
2022/01/16 10:58:21;;;;;;;31.27;16.50;;;;;;;13.23;36.49;98277.84;4990138;28;20391;-79
2022/01/16 11:01:00;;;;;;;49.88;27.70;;;;;;;14.57;35.91;98276.41;4984195;28;20121;-79
2022/01/16 11:03:27;;;;;;;54.60;27.23;;;;;;;14.05;36.03;98280.75;5000802;28;20798;-80
2022/01/16 11:05:53;;;;;;;49.15;28.45;;;;;;;14.70;35.44;98276.47;4976223;28;20462;-78
2022/01/16 11:08:21;;;;;;;52.05;23.48;;;;;;;14.90;35.17;98269.72;4991521;28;20026;-82
2022/01/16 11:10:51;;;;;;;63.08;34.35;;;;;;;14.97;34.82;98260.25;5000044;28;20045;-78
2022/01/16 11:13:20;;;;;;;52.53;32.95;;;;;;;14.31;35.70;98262.88;4985568;28;20061;-80
2022/01/16 11:19:52;;;;;;;63.03;37.13;;;;;;;15.96;34.45;98262.25;4932572;29;20079;-85
2022/01/16 11:22:34;;;;;;;52.75;32.00;;;;;;;15.36;33.91;98232.38;4953520;28;20050;-88
2022/01/16 11:25:11;;;;;;;45.35;26.08;;;;;;;13.71;36.19;98256.94;4991765;28;20041;-90
2022/01/16 11:27:38;;;;;;;56.10;31.17;;;;;;;13.75;36.11;98253.13;4999319;28;20034;-91
2022/01/16 11:30:04;;;;;;;45.42;27.38;;;;;;;12.58;38.82;98272.81;4989820;28;20065;-90
2022/01/16 11:32:29;;;;;;;46.92;26.35;;;;;;;13.70;36.50;98256.06;5005054;28;20413;-78
2022/01/16 11:34:57;;;;;;;45.05;26.70;;;;;;;14.96;35.64;98253.13;5008542;28;20026;-77
2022/01/16 11:37:22;;;;;;;65.35;36.50;;;;;;;15.58;33.93;98246.09;4969650;28;20108;-80
2022/01/16 11:39:48;;;;;;;52.22;29.95;;;;;;;15.49;34.58;98244.94;4988218;28;20042;-84
2022/01/16 11:42:21;;;;;;;49.33;28.65;;;;;;;15.70;34.05;98237.13;4995465;28;20030;-77
2022/01/16 11:44:53;;;;;;;47.35;28.95;;;;;;;17.11;31.93;98229.25;4989827;28;20034;-79
2022/01/16 11:47:19;;;;;;;47.33;28.88;;;;;;;16.87;32.90;98231.13;4996992;28;20054;-76
2022/01/16 11:49:44;;;;;;;50.05;31.38;;;;;;;16.87;32.39;98223.03;4982315;28;20057;-79
2022/01/16 11:52:11;;;;;;;50.30;32.58;;;;;;;15.81;33.78;98234.53;4997373;28;20026;-77
2022/01/16 11:54:50;;;;;;;54.17;30.77;;;;;;;14.23;35.76;98227.56;4989578;28;20030;-77
2022/01/16 11:57:28;;;;;;;64.60;34.05;;;;;;;15.10;35.28;98231.50;4990202;28;20022;-77
2022/01/16 12:00:17;;;;;;;56.05;32.33;;;;;;;15.99;33.98;98226.94;4982551;28;20117;-78
2022/01/16 12:02:48;;;;;;;51.25;31.95;;;;;;;16.10;33.43;98224.31;4973764;28;20045;-78
2022/01/16 12:05:22;;;;;;;56.97;35.67;;;;;;;15.79;34.19;98216.72;4980380;28;20449;-78
2022/01/16 12:07:53;;;;;;;54.45;32.67;;;;;;;15.61;33.65;98205.44;4980752;28;20033;-77
2022/01/16 12:10:57;;;;;;;49.40;31.13;;;;;;;14.44;35.45;98208.19;4979100;28;20466;-78